createdAt,value
2018-07-10T00:03:01.382Z,72.02
2018-07-10T00:04:20.481Z,72.14
2018-07-10T00:05:30.343Z,72.13
2018-07-10T00:06:49.719Z,72.04
2018-07-10T00:08:01.386Z,72.25
2018-07-10T00:09:12.335Z,72.00
2018-07-10T00:10:26.703Z,72.16
2018-07-10T00:11:33.545Z,71.94
2018-07-10T00:12:38.828Z,72.27
2018-07-10T00:13:44.480Z,72.21
2018-07-10T00:14:51.115Z,72.16
2018-07-10T00:15:57.523Z,72.07
2018-07-10T00:17:04.173Z,72.15
2018-07-10T00:18:09.521Z,72.15
2018-07-10T00:19:14.528Z,72.29
2018-07-10T00:20:21.271Z,72.19
2018-07-10T00:21:27.298Z,72.42
2018-07-10T00:22:35.166Z,72.46
2018-07-10T00:23:40.362Z,72.33
2018-07-10T00:24:44.964Z,72.49
2018-07-10T00:25:51.858Z,72.42
2018-07-10T00:26:56.339Z,72.37
2018-07-10T00:28:04.585Z,72.17
2018-07-10T00:29:09.188Z,72.37
2018-07-10T00:30:13.774Z,72.50
2018-07-10T00:31:19.170Z,72.45
2018-07-10T00:32:24.241Z,72.29
2018-07-10T00:33:29.142Z,72.55
2018-07-10T00:34:33.862Z,72.59
2018-07-10T00:35:39.048Z,72.55
2018-07-10T00:36:43.757Z,72.49
2018-07-10T00:37:53.588Z,72.42
2018-07-10T00:39:02.603Z,72.31
2018-07-10T00:40:15.466Z,72.42
2018-07-10T00:41:24.759Z,72.19
2018-07-10T00:42:29.316Z,72.14
2018-07-10T00:43:34.180Z,72.05
2018-07-10T00:44:42.581Z,72.04
2018-07-10T00:45:47.572Z,72.17
2018-07-10T00:46:53.131Z,71.87
2018-07-10T00:47:57.782Z,72.11
2018-07-10T00:49:03.011Z,72.01
2018-07-10T00:50:08.321Z,71.88
2018-07-10T00:51:15.619Z,71.99
2018-07-10T00:52:26.329Z,71.97
2018-07-10T00:53:32.501Z,71.86
2018-07-10T00:54:39.512Z,71.70
2018-07-10T00:55:44.116Z,71.91
2018-07-10T00:56:48.735Z,72.03
2018-07-10T00:57:54.500Z,71.85
2018-07-10T00:58:59.997Z,71.98
2018-07-10T01:00:05.895Z,71.88
2018-07-10T01:01:11.352Z,71.96
2018-07-10T01:02:15.943Z,72.04
2018-07-10T01:03:21.266Z,71.92
2018-07-10T01:04:27.276Z,72.02
2018-07-10T01:05:32.279Z,72.39
2018-07-10T01:06:37.807Z,72.44
2018-07-10T01:07:42.944Z,72.81
2018-07-10T01:08:50.163Z,72.99
2018-07-10T01:09:54.861Z,73.39
2018-07-10T01:11:04.146Z,73.25
2018-07-10T01:12:09.738Z,73.70
2018-07-10T01:13:15.036Z,73.59
2018-07-10T01:14:20.355Z,73.62
2018-07-10T01:15:26.577Z,73.72
2018-07-10T01:16:34.804Z,73.82
2018-07-10T01:17:41.240Z,73.85
2018-07-10T01:18:46.535Z,74.08
2018-07-10T01:19:52.979Z,74.08
2018-07-10T01:20:58.816Z,74.05
2018-07-10T01:22:04.066Z,74.22
2018-07-10T01:23:09.207Z,74.24
2018-07-10T01:24:15.776Z,74.33
2018-07-10T01:25:23.544Z,74.35
2018-07-10T01:26:32.656Z,74.55
2018-07-10T01:27:39.388Z,74.61
2018-07-10T01:28:46.744Z,74.75
2018-07-10T01:29:52.314Z,74.88
2018-07-10T01:30:58.355Z,75.04
2018-07-10T01:32:06.165Z,75.10
2018-07-10T01:33:11.520Z,74.85
2018-07-10T01:34:17.842Z,74.63
2018-07-10T01:35:26.060Z,74.80
2018-07-10T01:36:31.915Z,74.63
2018-07-10T01:37:37.234Z,74.28
2018-07-10T01:38:41.912Z,74.21
2018-07-10T01:39:47.227Z,74.21
2018-07-10T01:40:52.347Z,74.38
2018-07-10T01:41:57.423Z,73.94
2018-07-10T01:43:02.014Z,73.94
2018-07-10T01:44:06.718Z,73.73
2018-07-10T01:45:12.828Z,73.62
2018-07-10T01:46:17.942Z,73.35
2018-07-10T01:47:22.721Z,73.30
2018-07-10T01:48:27.765Z,73.22
2018-07-10T01:49:32.481Z,73.02
2018-07-10T01:50:37.110Z,72.88
2018-07-10T01:51:41.711Z,72.79
2018-07-10T01:52:47.908Z,72.81
2018-07-10T01:53:52.623Z,72.63
2018-07-10T01:54:57.751Z,72.54
2018-07-10T01:56:02.487Z,72.60
2018-07-10T01:57:07.067Z,72.51
2018-07-10T01:58:11.868Z,72.78
2018-07-10T01:59:17.460Z,72.39
2018-07-10T02:00:27.276Z,72.39
2018-07-10T02:01:32.802Z,72.46
2018-07-10T02:02:37.462Z,72.23
2018-07-10T02:03:42.112Z,72.08
2018-07-10T02:04:46.741Z,72.08
2018-07-10T02:05:51.332Z,71.89
2018-07-10T02:06:56.241Z,72.25
2018-07-10T02:08:00.796Z,72.27
2018-07-10T02:09:05.630Z,71.99
2018-07-10T02:10:10.240Z,72.19
2018-07-10T02:11:14.867Z,72.21
2018-07-10T02:12:19.496Z,72.18
2018-07-10T02:13:24.548Z,72.15
2018-07-10T02:14:29.231Z,71.94
2018-07-10T02:15:33.875Z,71.96
2018-07-10T02:16:38.476Z,72.30
2018-07-10T02:17:43.179Z,72.41
2018-07-10T02:18:47.811Z,72.29
2018-07-10T02:19:53.095Z,72.24
2018-07-10T02:21:00.417Z,72.26
2018-07-10T02:22:05.073Z,72.13
2018-07-10T02:23:09.684Z,72.15
2018-07-10T02:24:17.628Z,72.19
2018-07-10T02:25:22.621Z,72.15
2018-07-10T02:26:28.613Z,72.24
2018-07-10T02:27:34.169Z,72.20
2018-07-10T02:28:38.912Z,72.37
2018-07-10T02:29:43.630Z,72.27
2018-07-10T02:30:48.338Z,72.41
2018-07-10T02:31:54.800Z,72.39
2018-07-10T02:32:59.917Z,72.48
2018-07-10T02:34:04.620Z,72.49
2018-07-10T02:35:10.249Z,72.52
2018-07-10T02:36:14.731Z,72.42
2018-07-10T02:37:19.508Z,72.65
2018-07-10T02:38:24.613Z,72.58
2018-07-10T02:39:30.629Z,72.60
2018-07-10T02:40:36.072Z,72.50
2018-07-10T02:41:42.645Z,72.63
2018-07-10T02:42:47.144Z,72.63
2018-07-10T02:43:58.583Z,72.65
2018-07-10T02:45:03.258Z,72.74
2018-07-10T02:46:08.426Z,72.52
2018-07-10T02:47:12.976Z,72.86
2018-07-10T02:48:17.766Z,72.84
2018-07-10T02:49:23.193Z,72.82
2018-07-10T02:50:27.779Z,72.55
2018-07-10T02:51:33.654Z,72.69
2018-07-10T02:52:38.814Z,72.66
2018-07-10T02:53:45.332Z,72.92
2018-07-10T02:54:49.875Z,72.94
2018-07-10T02:55:54.852Z,72.92
2018-07-10T02:56:59.387Z,72.86
2018-07-10T02:58:03.904Z,73.00
2018-07-10T02:59:08.804Z,72.90
2018-07-10T03:00:13.664Z,73.08
2018-07-10T03:01:18.210Z,73.14
2018-07-10T03:02:26.861Z,73.01
2018-07-10T03:03:31.694Z,73.22
2018-07-10T03:04:37.554Z,73.16
2018-07-10T03:05:42.565Z,73.17
2018-07-10T03:06:47.191Z,72.95
2018-07-10T03:07:52.420Z,72.85
2018-07-10T03:08:57.691Z,73.12
2018-07-10T03:10:02.796Z,73.19
2018-07-10T03:11:07.497Z,72.86
2018-07-10T03:12:12.308Z,72.74
2018-07-10T03:13:17.140Z,72.89
2018-07-10T03:14:21.648Z,72.88
2018-07-10T03:15:26.154Z,72.71
2018-07-10T03:16:30.689Z,72.81
2018-07-10T03:17:35.612Z,72.77
2018-07-10T03:18:41.105Z,72.88
2018-07-10T03:19:45.678Z,72.75
2018-07-10T03:20:50.314Z,72.77
2018-07-10T03:21:54.933Z,72.62
2018-07-10T03:22:59.467Z,72.70
2018-07-10T03:24:04.235Z,72.83
2018-07-10T03:25:10.020Z,72.76
2018-07-10T03:26:15.501Z,72.58
2018-07-10T03:27:20.139Z,72.50
2018-07-10T03:28:24.815Z,72.41
2018-07-10T03:29:30.308Z,72.55
2018-07-10T03:30:34.937Z,72.43
2018-07-10T03:31:41.954Z,72.36
2018-07-10T03:32:47.722Z,72.53
2018-07-10T03:33:52.531Z,72.61
2018-07-10T03:34:57.419Z,72.62
2018-07-10T03:36:02.124Z,72.53
2018-07-10T03:37:06.903Z,72.40
2018-07-10T03:38:12.312Z,72.71
2018-07-10T03:39:17.695Z,72.75
2018-07-10T03:40:23.051Z,72.65
2018-07-10T03:41:27.954Z,72.74
2018-07-10T03:42:39.060Z,72.90
2018-07-10T03:43:44.706Z,72.87
2018-07-10T03:44:50.927Z,72.79
2018-07-10T03:45:55.565Z,72.68
2018-07-10T03:47:00.353Z,72.57
2018-07-10T03:48:05.048Z,72.71
2018-07-10T03:49:10.147Z,72.69
2018-07-10T03:50:14.740Z,72.89
2018-07-10T03:51:20.519Z,72.77
2018-07-10T03:52:32.438Z,72.74
2018-07-10T03:53:37.500Z,72.92
2018-07-10T03:54:42.718Z,72.89
2018-07-10T03:55:47.321Z,72.96
2018-07-10T03:56:52.639Z,72.95
2018-07-10T03:57:58.407Z,72.90
2018-07-10T03:59:04.471Z,72.65
2018-07-10T04:00:13.728Z,72.54
2018-07-10T04:01:18.346Z,72.58
2018-07-10T04:02:25.022Z,72.70
2018-07-10T04:03:31.089Z,72.44
2018-07-10T04:04:36.140Z,72.44
2018-07-10T04:05:40.696Z,72.77
2018-07-10T04:06:46.345Z,72.86
2018-07-10T04:07:51.430Z,72.97
2018-07-10T04:08:57.329Z,73.03
2018-07-10T04:10:02.069Z,72.90
2018-07-10T04:11:07.074Z,72.84
2018-07-10T04:12:11.695Z,72.68
2018-07-10T04:13:23.392Z,72.50
2018-07-10T04:14:27.905Z,72.40
2018-07-10T04:15:32.398Z,72.29
2018-07-10T04:16:37.388Z,72.43
2018-07-10T04:18:13.414Z,72.51
2018-07-10T04:19:17.970Z,72.66
2018-07-10T04:20:22.481Z,72.46
2018-07-10T04:21:29.072Z,72.44
2018-07-10T04:22:34.596Z,72.49
2018-07-10T04:23:39.787Z,72.31
2018-07-10T04:24:45.569Z,72.43
2018-07-10T04:25:52.074Z,72.43
2018-07-10T04:27:31.136Z,72.34
2018-07-10T04:28:36.244Z,72.46
2018-07-10T04:29:44.340Z,72.50
2018-07-10T04:30:54.782Z,72.46
2018-07-10T04:32:02.039Z,72.45
2018-07-10T04:33:06.656Z,72.40
2018-07-10T04:34:11.231Z,72.29
2018-07-10T04:35:16.688Z,72.37
2018-07-10T04:36:21.208Z,72.53
2018-07-10T04:37:26.300Z,72.50
2018-07-10T04:38:30.868Z,72.33
2018-07-10T04:39:35.957Z,72.46
2018-07-10T04:40:40.477Z,72.59
2018-07-10T04:41:45.484Z,72.41
2018-07-10T04:42:56.131Z,72.44
2018-07-10T04:44:08.292Z,72.38
2018-07-10T04:45:13.951Z,72.29
2018-07-10T04:46:18.497Z,72.35
2018-07-10T04:47:25.358Z,72.34
2018-07-10T04:48:31.319Z,72.18
2018-07-10T04:49:42.238Z,72.19
2018-07-10T04:50:48.157Z,72.22
2018-07-10T04:51:56.255Z,72.21
2018-07-10T04:53:07.742Z,72.24
2018-07-10T04:55:17.603Z,72.12
2018-07-10T04:56:24.125Z,71.87
2018-07-10T04:57:32.520Z,71.88
2018-07-10T04:58:37.058Z,71.82
2018-07-10T04:59:41.851Z,71.59
2018-07-10T05:00:47.851Z,71.68
2018-07-10T05:01:52.410Z,71.69
2018-07-10T05:02:58.428Z,71.63
2018-07-10T05:04:03.063Z,71.65
2018-07-10T05:05:07.928Z,71.63
2018-07-10T05:06:17.992Z,71.60
2018-07-10T05:07:27.474Z,71.32
2018-07-10T05:08:33.766Z,71.27
2018-07-10T05:09:43.592Z,71.29
2018-07-10T05:11:01.156Z,71.22
2018-07-10T05:12:06.411Z,71.12
2018-07-10T05:13:12.350Z,71.10
2018-07-10T05:14:18.254Z,71.12
2018-07-10T05:15:23.533Z,71.03
2018-07-10T05:16:29.266Z,71.38
2018-07-10T05:17:35.092Z,70.93
2018-07-10T05:18:42.424Z,70.98
2018-07-10T05:19:48.658Z,70.72
2018-07-10T05:20:54.884Z,70.59
2018-07-10T05:22:00.670Z,70.65
2018-07-10T05:23:07.008Z,70.66
2018-07-10T05:24:12.136Z,70.78
2018-07-10T05:25:19.460Z,70.81
2018-07-10T05:26:24.819Z,70.88
2018-07-10T05:27:29.400Z,70.98
2018-07-10T05:28:34.022Z,70.68
2018-07-10T05:29:39.637Z,70.50
2018-07-10T05:30:45.271Z,70.62
2018-07-10T05:31:51.353Z,70.55
2018-07-10T05:32:57.042Z,70.77
2018-07-10T05:34:01.526Z,70.42
2018-07-10T05:35:06.558Z,70.35
2018-07-10T05:36:11.892Z,70.34
2018-07-10T05:37:37.414Z,70.11
2018-07-10T05:38:46.085Z,70.16
2018-07-10T05:39:50.628Z,69.90
2018-07-10T05:40:55.772Z,69.80
2018-07-10T05:42:00.332Z,69.67
2018-07-10T05:43:13.301Z,69.62
2018-07-10T05:44:26.181Z,69.83
2018-07-10T05:45:31.997Z,69.61
2018-07-10T05:46:37.420Z,69.32
2018-07-10T05:47:41.927Z,69.21
2018-07-10T05:48:54.120Z,69.21
2018-07-10T05:50:05.298Z,69.13
2018-07-10T05:51:11.257Z,69.07
2018-07-10T05:52:17.677Z,68.97
2018-07-10T05:53:23.106Z,69.00
2018-07-10T05:54:29.581Z,69.06
2018-07-10T05:55:36.000Z,69.16
2018-07-10T05:56:41.506Z,68.90
2018-07-10T05:57:46.700Z,69.04
2018-07-10T05:58:52.804Z,69.04
2018-07-10T05:59:58.483Z,69.12
2018-07-10T06:01:03.510Z,68.89
2018-07-10T06:02:07.997Z,69.11
2018-07-10T06:03:13.098Z,68.92
2018-07-10T06:04:19.094Z,69.09
2018-07-10T06:05:23.883Z,69.02
2018-07-10T06:06:28.507Z,68.99
2018-07-10T06:07:34.108Z,69.02
2018-07-10T06:08:38.620Z,69.04
2018-07-10T06:09:43.222Z,68.90
2018-07-10T06:10:47.929Z,68.71
2018-07-10T06:11:52.522Z,68.39
2018-07-10T06:12:59.711Z,68.42
2018-07-10T06:14:05.824Z,68.31
2018-07-10T06:15:13.313Z,68.22
2018-07-10T06:16:19.089Z,68.42
2018-07-10T06:17:23.736Z,68.54
2018-07-10T06:18:28.656Z,68.70
2018-07-10T06:19:35.108Z,68.47
2018-07-10T06:20:43.589Z,68.49
2018-07-10T06:21:53.205Z,68.39
2018-07-10T06:22:58.493Z,68.39
2018-07-10T06:24:05.507Z,68.45
2018-07-10T06:25:10.132Z,68.53
2018-07-10T06:26:14.959Z,68.61
2018-07-10T06:27:22.976Z,68.53
2018-07-10T06:28:28.937Z,68.62
2018-07-10T06:29:54.913Z,68.73
2018-07-10T06:31:04.396Z,68.57
2018-07-10T06:32:09.379Z,68.45
2018-07-10T06:33:22.294Z,68.32
2018-07-10T06:34:32.982Z,68.26
2018-07-10T06:35:40.521Z,67.84
2018-07-10T06:36:50.251Z,67.82
2018-07-10T06:37:57.816Z,67.56
2018-07-10T06:39:09.325Z,67.12
2018-07-10T06:40:18.913Z,66.93
2018-07-10T06:41:26.163Z,66.84
2018-07-10T06:42:40.074Z,66.51
2018-07-10T06:43:50.151Z,66.05
2018-07-10T06:44:56.037Z,65.95
2018-07-10T06:46:00.816Z,65.73
2018-07-10T06:47:15.750Z,65.86
2018-07-10T06:48:20.761Z,65.68
2018-07-10T06:49:33.125Z,65.51
2018-07-10T06:50:39.702Z,65.58
2018-07-10T06:51:44.571Z,66.12
2018-07-10T06:52:55.543Z,66.51
2018-07-10T06:54:02.945Z,67.24
2018-07-10T06:55:13.354Z,67.18
2018-07-10T06:56:27.015Z,67.12
2018-07-10T06:57:35.060Z,67.50
2018-07-10T06:58:39.588Z,67.43
2018-07-10T06:59:44.600Z,67.29
2018-07-10T07:00:51.681Z,67.08
2018-07-10T07:01:58.333Z,66.69
2018-07-10T07:03:04.133Z,66.83
2018-07-10T07:04:09.696Z,66.66
2018-07-10T07:05:15.753Z,66.50
2018-07-10T07:06:22.662Z,66.36
2018-07-10T07:07:27.268Z,66.01
2018-07-10T07:08:33.134Z,65.65
2018-07-10T07:09:38.655Z,65.35
2018-07-10T07:10:45.218Z,64.80
2018-07-10T07:11:51.203Z,64.83
2018-07-10T07:12:56.796Z,64.65
2018-07-10T07:14:03.043Z,64.64
2018-07-10T07:15:12.248Z,64.59
2018-07-10T07:16:17.494Z,64.47
2018-07-10T07:17:23.154Z,64.41
2018-07-10T07:18:30.819Z,64.15
2018-07-10T07:19:35.369Z,64.23
2018-07-10T07:20:39.870Z,64.30
2018-07-10T07:21:46.744Z,64.12
2018-07-10T07:22:51.722Z,64.04
2018-07-10T07:23:56.284Z,64.00
2018-07-10T07:25:01.150Z,64.26
2018-07-10T07:26:07.747Z,64.08
2018-07-10T07:27:13.186Z,64.23
2018-07-10T07:28:20.485Z,64.27
2018-07-10T07:29:25.100Z,64.09
2018-07-10T07:30:30.602Z,63.95
2018-07-10T07:31:35.253Z,63.96
2018-07-10T07:32:39.763Z,63.93
2018-07-10T07:33:44.983Z,63.69
2018-07-10T07:34:49.791Z,63.40
2018-07-10T07:35:54.660Z,63.11
2018-07-10T07:37:00.563Z,62.86
2018-07-10T07:38:06.869Z,62.61
2018-07-10T07:39:12.491Z,62.57
2018-07-10T07:40:17.457Z,62.40
2018-07-10T07:41:28.672Z,62.52
2018-07-10T07:42:33.774Z,62.47
2018-07-10T07:43:38.594Z,62.37
2018-07-10T07:44:44.163Z,61.95
2018-07-10T07:47:03.021Z,61.45
2018-07-10T07:48:08.425Z,61.11
2018-07-10T07:49:13.048Z,60.77
2018-07-10T07:50:19.705Z,60.46
2018-07-10T07:51:25.518Z,60.30
2018-07-10T07:52:31.768Z,59.46
2018-07-10T07:53:37.704Z,58.98
2018-07-10T07:54:45.324Z,58.54
2018-07-10T07:55:52.225Z,58.18
2018-07-10T07:56:57.624Z,57.70
2018-07-10T07:58:09.330Z,57.36
2018-07-10T07:59:15.244Z,57.17
2018-07-10T08:00:20.430Z,56.74
2018-07-10T08:01:42.731Z,56.08
2018-07-10T08:02:47.389Z,55.66
2018-07-10T08:03:53.777Z,55.53
2018-07-10T08:05:01.028Z,55.59
2018-07-10T08:06:08.213Z,55.84
2018-07-10T08:07:13.872Z,55.92
2018-07-10T08:08:19.532Z,55.67
2018-07-10T08:09:25.493Z,55.39
2018-07-10T08:10:31.753Z,54.98
2018-07-10T08:11:39.319Z,54.88
2018-07-10T08:12:44.594Z,54.83
2018-07-10T08:13:50.341Z,55.25
2018-07-10T08:14:55.252Z,55.07
2018-07-10T08:16:01.459Z,55.49
2018-07-10T08:17:06.448Z,55.45
2018-07-10T08:18:18.150Z,55.24
2018-07-10T08:19:23.790Z,55.23
2018-07-10T08:20:28.500Z,55.00
2018-07-10T08:21:33.807Z,55.03
2018-07-10T08:22:42.293Z,55.01
2018-07-10T08:23:48.312Z,54.63
2018-07-10T08:24:56.549Z,54.79
2018-07-10T08:26:02.897Z,54.34
2018-07-10T08:27:10.569Z,54.34
2018-07-10T08:28:18.715Z,54.24
2018-07-10T08:29:25.085Z,54.14
2018-07-10T08:30:30.180Z,53.59
2018-07-10T08:31:34.705Z,53.44
2018-07-10T08:32:39.689Z,53.19
2018-07-10T08:33:45.601Z,53.36
2018-07-10T08:34:52.088Z,53.09
2018-07-10T08:35:57.237Z,53.86
2018-07-10T08:37:02.410Z,54.12
2018-07-10T08:38:06.985Z,54.57
2018-07-10T08:39:13.057Z,54.71
2018-07-10T08:40:19.059Z,54.76
2018-07-10T08:41:25.556Z,55.27
2018-07-10T08:42:31.329Z,55.25
2018-07-10T08:43:36.226Z,55.44
2018-07-10T08:44:40.748Z,55.81
2018-07-10T08:45:46.223Z,55.76
2018-07-10T08:46:52.859Z,55.92
2018-07-10T08:47:59.239Z,55.73
2018-07-10T08:49:03.778Z,55.76
2018-07-10T08:50:09.285Z,55.56
2018-07-10T08:51:14.252Z,55.35
2018-07-10T08:52:19.832Z,55.35
2018-07-10T08:53:24.812Z,55.46
2018-07-10T08:54:31.196Z,55.49
2018-07-10T08:55:37.393Z,55.47
2018-07-10T08:56:43.730Z,55.80
2018-07-10T08:57:49.739Z,56.43
2018-07-10T08:58:54.336Z,56.43
2018-07-10T08:59:59.641Z,56.66
2018-07-10T09:01:05.255Z,56.76
2018-07-10T09:02:10.218Z,57.21
2018-07-10T09:03:16.477Z,57.88
2018-07-10T09:04:22.150Z,58.06
2018-07-10T09:05:27.308Z,58.41
2018-07-10T09:06:32.323Z,58.46
2018-07-10T09:07:37.578Z,58.21
2018-07-10T09:08:42.224Z,58.09
2018-07-10T09:09:49.456Z,58.46
2018-07-10T09:10:54.100Z,59.01
2018-07-10T09:11:59.132Z,59.11
2018-07-10T09:13:05.332Z,59.34
2018-07-10T09:14:13.662Z,58.99
2018-07-10T09:15:21.054Z,58.40
2018-07-10T09:16:27.698Z,57.90
2018-07-10T09:17:34.606Z,57.71
2018-07-10T09:18:45.576Z,57.76
2018-07-10T09:19:52.443Z,57.67
2018-07-10T09:20:59.865Z,58.48
2018-07-10T09:22:10.136Z,58.65
2018-07-10T09:23:16.144Z,58.20
2018-07-10T09:24:21.136Z,58.46
2018-07-10T09:25:25.788Z,58.77
2018-07-10T09:26:31.370Z,58.83
2018-07-10T09:27:43.368Z,58.32
2018-07-10T09:28:49.756Z,57.64
2018-07-10T09:29:56.152Z,57.45
2018-07-10T09:31:02.105Z,57.53
2018-07-10T09:32:10.088Z,57.21
2018-07-10T09:33:16.946Z,57.53
2018-07-10T09:34:21.727Z,57.17
2018-07-10T09:35:27.450Z,56.74
2018-07-10T09:36:37.611Z,56.81
2018-07-10T09:37:45.124Z,57.32
2018-07-10T09:38:50.083Z,57.69
2018-07-10T09:40:01.085Z,57.21
2018-07-10T09:41:08.305Z,56.82
2018-07-10T09:42:13.595Z,56.33
2018-07-10T09:43:19.704Z,55.99
2018-07-10T09:44:25.582Z,55.52
2018-07-10T09:45:33.913Z,56.39
2018-07-10T09:46:40.450Z,57.14
2018-07-10T09:47:45.614Z,57.69
2018-07-10T09:48:51.969Z,57.98
2018-07-10T09:49:57.817Z,58.49
2018-07-10T09:51:04.262Z,58.27
2018-07-10T09:52:10.851Z,57.85
2018-07-10T09:53:16.890Z,57.74
2018-07-10T09:54:22.992Z,57.62
2018-07-10T09:55:29.429Z,57.28
2018-07-10T09:56:36.095Z,57.99
2018-07-10T09:57:41.214Z,58.29
2018-07-10T09:58:46.295Z,57.87
2018-07-10T09:59:50.930Z,58.32
2018-07-10T10:01:00.730Z,58.79
2018-07-10T10:02:10.830Z,59.26
2018-07-10T10:03:15.545Z,58.67
2018-07-10T10:04:22.011Z,59.11
2018-07-10T10:05:28.588Z,59.19
2018-07-10T10:06:33.280Z,59.29
2018-07-10T10:07:38.825Z,59.41
2018-07-10T10:08:44.659Z,58.87
2018-07-10T10:09:51.385Z,58.39
2018-07-10T10:10:57.358Z,58.85
2018-07-10T10:12:02.630Z,59.58
2018-07-10T10:13:07.981Z,59.44
2018-07-10T10:14:13.628Z,59.56
2018-07-10T10:15:20.019Z,59.38
2018-07-10T10:16:27.151Z,59.45
2018-07-10T10:17:32.584Z,59.53
2018-07-10T10:18:39.479Z,59.16
2018-07-10T10:19:48.288Z,59.01
2018-07-10T10:20:54.621Z,58.66
2018-07-10T10:22:00.719Z,58.81
2018-07-10T10:23:07.153Z,58.93
2018-07-10T10:24:11.936Z,58.47
2018-07-10T10:25:17.022Z,58.33
2018-07-10T10:26:22.723Z,59.37
2018-07-10T10:27:29.783Z,59.54
2018-07-10T10:28:35.051Z,59.22
2018-07-10T10:29:41.261Z,59.32
2018-07-10T10:30:49.028Z,60.14
2018-07-10T10:31:55.183Z,61.07
2018-07-10T10:33:01.873Z,61.33
2018-07-10T10:34:09.804Z,61.46
2018-07-10T10:35:14.591Z,61.77
2018-07-10T10:36:19.759Z,61.50
2018-07-10T10:37:25.040Z,61.36
2018-07-10T10:38:29.765Z,61.19
2018-07-10T10:39:35.235Z,61.93
2018-07-10T10:40:40.896Z,62.70
2018-07-10T10:41:47.028Z,63.07
2018-07-10T10:42:51.708Z,63.55
2018-07-10T10:43:57.278Z,62.83
2018-07-10T10:45:04.655Z,62.59
2018-07-10T10:46:10.817Z,62.46
2018-07-10T10:47:16.949Z,62.26
2018-07-10T10:48:22.072Z,62.03
2018-07-10T10:49:29.210Z,62.51
2018-07-10T10:50:34.795Z,63.30
2018-07-10T10:51:40.363Z,63.09
2018-07-10T10:52:46.909Z,63.20
2018-07-10T10:53:57.248Z,63.03
2018-07-10T10:55:03.431Z,63.16
2018-07-10T10:56:08.142Z,63.32
2018-07-10T10:57:13.394Z,63.65
2018-07-10T10:58:19.235Z,64.05
2018-07-10T10:59:26.167Z,64.35
2018-07-10T11:00:33.809Z,64.29
2018-07-10T11:01:41.120Z,64.09
2018-07-10T11:02:46.167Z,63.66
2018-07-10T11:03:50.847Z,63.87
2018-07-10T11:04:57.558Z,63.99
2018-07-10T11:06:05.141Z,64.22
2018-07-10T11:07:12.583Z,64.68
2018-07-10T11:08:19.060Z,64.94
2018-07-10T11:09:24.565Z,65.20
2018-07-10T11:10:30.402Z,65.04
2018-07-10T11:11:35.876Z,65.44
2018-07-10T11:12:41.857Z,65.35
2018-07-10T11:13:49.625Z,65.52
2018-07-10T11:14:56.763Z,65.14
2018-07-10T11:16:01.401Z,64.55
2018-07-10T11:17:09.763Z,64.09
2018-07-10T11:18:22.991Z,64.27
2018-07-10T11:19:32.333Z,64.62
2018-07-10T11:20:44.588Z,64.55
2018-07-10T11:23:19.792Z,64.25
2018-07-10T11:24:25.639Z,64.09
2018-07-10T11:25:31.014Z,64.07
2018-07-10T11:26:37.779Z,64.04
2018-07-10T11:27:57.456Z,63.94
2018-07-10T11:29:04.567Z,63.80
2018-07-10T11:30:12.448Z,64.02
2018-07-10T11:31:17.873Z,63.74
2018-07-10T11:32:22.402Z,63.59
2018-07-10T11:33:28.063Z,63.86
2018-07-10T11:34:32.620Z,64.33
2018-07-10T11:35:42.381Z,63.82
2018-07-10T11:36:47.867Z,64.14
2018-07-10T11:37:57.586Z,64.06
2018-07-10T11:39:07.565Z,64.39
2018-07-10T11:40:12.569Z,64.45
2018-07-10T11:41:17.459Z,64.60
2018-07-10T11:42:23.788Z,64.59
2018-07-10T11:43:29.344Z,64.94
2018-07-10T11:44:35.738Z,64.98
2018-07-10T11:45:41.427Z,65.26
2018-07-10T11:46:47.247Z,65.49
2018-07-10T11:47:53.175Z,65.72
2018-07-10T11:49:00.697Z,66.24
2018-07-10T11:50:06.779Z,66.96
2018-07-10T11:51:12.393Z,66.91
2018-07-10T11:52:17.731Z,67.69
2018-07-10T11:53:22.285Z,67.58
2018-07-10T11:54:29.422Z,67.40
2018-07-10T11:55:34.612Z,67.42
2018-07-10T11:56:41.389Z,67.14
2018-07-10T11:57:47.085Z,67.31
2018-07-10T11:58:52.070Z,67.58
2018-07-10T11:59:57.312Z,68.44
2018-07-10T12:01:03.204Z,68.74
2018-07-10T12:02:09.832Z,68.93
2018-07-10T12:03:16.520Z,68.43
2018-07-10T12:04:21.074Z,68.83
2018-07-10T12:05:26.200Z,69.23
2018-07-10T12:06:31.731Z,69.65
2018-07-10T12:07:37.506Z,69.69
2018-07-10T12:08:43.304Z,70.34
2018-07-10T12:09:53.896Z,70.74
2018-07-10T12:11:04.180Z,71.80
2018-07-10T12:12:10.412Z,72.63
2018-07-10T12:13:15.600Z,73.00
2018-07-10T12:14:22.290Z,73.07
2018-07-10T12:15:27.955Z,73.16
2018-07-10T12:16:33.288Z,73.22
2018-07-10T12:17:39.424Z,73.74
2018-07-10T12:18:45.793Z,73.79
2018-07-10T12:19:51.694Z,73.90
2018-07-10T12:20:56.465Z,73.67
2018-07-10T12:22:03.123Z,74.02
2018-07-10T12:23:09.213Z,73.94
2018-07-10T12:24:14.320Z,73.93
2018-07-10T12:25:22.315Z,73.54
2018-07-10T12:26:29.049Z,73.53
2018-07-10T12:27:38.635Z,73.33
2018-07-10T12:28:45.472Z,73.38
2018-07-10T12:29:55.651Z,72.46
2018-07-10T12:31:01.125Z,72.57
2018-07-10T12:32:05.629Z,72.33
2018-07-10T12:33:15.750Z,72.24
2018-07-10T12:34:21.145Z,72.79
2018-07-10T12:35:26.289Z,72.15
2018-07-10T12:36:32.614Z,72.28
2018-07-10T12:37:42.073Z,72.04
2018-07-10T12:38:47.298Z,72.22
2018-07-10T12:39:52.101Z,72.32
2018-07-10T12:40:58.083Z,72.55
2018-07-10T12:42:06.149Z,72.37
2018-07-10T12:43:12.535Z,72.14
2018-07-10T12:44:18.791Z,71.79
2018-07-10T12:45:25.351Z,71.53
2018-07-10T12:46:31.324Z,71.48
2018-07-10T12:47:40.228Z,71.22
2018-07-10T12:48:46.474Z,71.46
2018-07-10T12:49:51.523Z,71.46
2018-07-10T12:50:57.311Z,71.57
2018-07-10T12:52:03.542Z,71.62
2018-07-10T12:53:08.549Z,71.19
2018-07-10T12:54:14.024Z,71.55
2018-07-10T12:55:20.207Z,71.85
2018-07-10T12:56:27.386Z,72.11
2018-07-10T12:57:36.988Z,72.35
2018-07-10T12:58:44.435Z,72.17
2018-07-10T12:59:50.123Z,71.86
2018-07-10T13:00:55.555Z,72.12
2018-07-10T13:02:01.795Z,72.04
2018-07-10T13:03:08.946Z,72.05
2018-07-10T13:04:15.716Z,72.42
2018-07-10T13:05:25.297Z,72.24
2018-07-10T13:06:31.952Z,72.40
2018-07-10T13:07:37.472Z,71.87
2018-07-10T13:08:42.096Z,71.86
2018-07-10T13:09:46.626Z,71.79
2018-07-10T13:10:51.115Z,71.83
2018-07-10T13:11:57.739Z,71.82
2018-07-10T13:13:03.676Z,71.63
2018-07-10T13:14:08.811Z,71.47
2018-07-10T13:15:13.936Z,71.53
2018-07-10T13:16:20.872Z,71.70
2018-07-10T13:17:26.525Z,71.48
2018-07-10T13:18:32.598Z,70.75
2018-07-10T13:19:40.374Z,70.37
2018-07-10T13:20:45.495Z,70.27
2018-07-10T13:21:50.110Z,70.08
2018-07-10T13:22:55.719Z,69.69
2018-07-10T13:24:00.348Z,70.00
2018-07-10T13:25:06.422Z,69.57
2018-07-10T13:26:25.549Z,69.72
2018-07-10T13:27:31.695Z,69.74
2018-07-10T13:28:37.549Z,68.84
2018-07-10T13:29:43.624Z,69.22
2018-07-10T13:30:51.902Z,69.55
2018-07-10T13:31:56.895Z,69.39
2018-07-10T13:33:01.506Z,69.28
2018-07-10T13:34:06.278Z,69.30
2018-07-10T13:35:11.702Z,69.41
2018-07-10T13:36:17.992Z,69.57
2018-07-10T13:37:24.433Z,69.25
2018-07-10T13:38:30.484Z,68.75
2018-07-10T13:39:36.461Z,68.50
2018-07-10T13:40:41.020Z,69.19
2018-07-10T13:41:48.644Z,69.54
2018-07-10T13:42:58.789Z,69.56
2018-07-10T13:44:04.274Z,69.35
2018-07-10T13:45:12.280Z,69.44
2018-07-10T13:46:18.488Z,69.62
2018-07-10T13:47:24.231Z,69.45
2018-07-10T13:48:28.750Z,69.91
2018-07-10T13:49:37.774Z,70.36
2018-07-10T13:50:43.952Z,70.15
2018-07-10T13:51:48.995Z,70.21
2018-07-10T13:52:54.249Z,70.42
2018-07-10T13:53:58.802Z,70.52
2018-07-10T13:55:03.407Z,69.90
2018-07-10T13:56:13.269Z,70.00
2018-07-10T13:57:17.792Z,70.52
2018-07-10T13:58:25.517Z,70.36
2018-07-10T13:59:31.765Z,70.44
2018-07-10T14:00:37.215Z,70.56
2018-07-10T14:01:42.816Z,70.66
2018-07-10T14:02:48.649Z,70.81
2018-07-10T14:03:53.291Z,70.88
2018-07-10T14:04:59.979Z,70.36
2018-07-10T14:06:08.622Z,70.35
2018-07-10T14:07:15.615Z,70.54
2018-07-10T14:08:21.977Z,70.63
2018-07-10T14:09:36.596Z,70.60
2018-07-10T14:10:46.197Z,70.69
2018-07-10T14:11:57.053Z,70.18
2018-07-10T14:13:03.308Z,70.06
2018-07-10T14:14:09.940Z,69.51
2018-07-10T14:15:17.295Z,69.81
2018-07-10T14:16:24.441Z,69.94
2018-07-10T14:17:29.701Z,70.22
2018-07-10T14:18:36.414Z,69.95
2018-07-10T14:19:41.940Z,69.95
2018-07-10T14:20:51.674Z,70.14
2018-07-10T14:21:57.040Z,70.28